sensor_id;sensor_type;location;lat;lon;timestamp;P1;durP1;ratioP1;P2;durP2;ratioP2
54143;SDS011;40050;47.324;18.792;2023-05-07T00:01:45;8.02;;;6.39;;
54143;SDS011;40050;47.324;18.792;2023-05-07T00:03:46;9.00;;;7.29;;
54143;SDS011;40050;47.324;18.792;2023-05-07T00:05:47;8.90;;;6.80;;
54143;SDS011;40050;47.324;18.792;2023-05-07T00:07:48;8.05;;;6.99;;
54143;SDS011;40050;47.324;18.792;2023-05-07T00:09:49;9.34;;;7.08;;
54143;SDS011;40050;47.324;18.792;2023-05-07T00:11:50;11.36;;;6.98;;
54143;SDS011;40050;47.324;18.792;2023-05-07T00:13:51;8.41;;;7.08;;
54143;SDS011;40050;47.324;18.792;2023-05-07T00:15:52;8.12;;;6.98;;
54143;SDS011;40050;47.324;18.792;2023-05-07T00:17:53;8.86;;;7.28;;
54143;SDS011;40050;47.324;18.792;2023-05-07T00:19:54;10.15;;;6.88;;
54143;SDS011;40050;47.324;18.792;2023-05-07T00:21:55;8.21;;;7.18;;
54143;SDS011;40050;47.324;18.792;2023-05-07T00:23:56;8.75;;;6.88;;
54143;SDS011;40050;47.324;18.792;2023-05-07T00:25:57;10.40;;;6.98;;
54143;SDS011;40050;47.324;18.792;2023-05-07T00:27:58;8.56;;;6.78;;
54143;SDS011;40050;47.324;18.792;2023-05-07T00:29:58;9.66;;;6.48;;
54143;SDS011;40050;47.324;18.792;2023-05-07T00:31:59;8.94;;;6.88;;
54143;SDS011;40050;47.324;18.792;2023-05-07T00:34:00;8.50;;;6.00;;
54143;SDS011;40050;47.324;18.792;2023-05-07T00:36:01;8.23;;;6.39;;
54143;SDS011;40050;47.324;18.792;2023-05-07T00:38:02;7.48;;;6.29;;
54143;SDS011;40050;47.324;18.792;2023-05-07T00:40:03;9.78;;;6.59;;
54143;SDS011;40050;47.324;18.792;2023-05-07T00:42:04;8.21;;;6.78;;
54143;SDS011;40050;47.324;18.792;2023-05-07T00:44:05;7.30;;;6.20;;
54143;SDS011;40050;47.324;18.792;2023-05-07T00:46:06;10.26;;;6.40;;
54143;SDS011;40050;47.324;18.792;2023-05-07T00:48:07;9.07;;;6.69;;
54143;SDS011;40050;47.324;18.792;2023-05-07T00:50:14;7.31;;;6.30;;
54143;SDS011;40050;47.324;18.792;2023-05-07T00:52:16;9.24;;;6.79;;
54143;SDS011;40050;47.324;18.792;2023-05-07T00:54:17;7.48;;;6.39;;
54143;SDS011;40050;47.324;18.792;2023-05-07T00:56:20;9.41;;;6.59;;
54143;SDS011;40050;47.324;18.792;2023-05-07T00:58:20;7.66;;;6.29;;
54143;SDS011;40050;47.324;18.792;2023-05-07T01:00:22;7.19;;;6.39;;
54143;SDS011;40050;47.324;18.792;2023-05-07T01:02:23;7.47;;;6.29;;
54143;SDS011;40050;47.324;18.792;2023-05-07T01:04:24;7.65;;;6.49;;
54143;SDS011;40050;47.324;18.792;2023-05-07T01:06:26;8.94;;;6.68;;
54143;SDS011;40050;47.324;18.792;2023-05-07T01:08:27;8.75;;;6.78;;
54143;SDS011;40050;47.324;18.792;2023-05-07T01:10:29;8.38;;;6.78;;
54143;SDS011;40050;47.324;18.792;2023-05-07T01:12:30;9.57;;;6.78;;
54143;SDS011;40050;47.324;18.792;2023-05-07T01:14:31;8.18;;;6.87;;
54143;SDS011;40050;47.324;18.792;2023-05-07T01:16:32;8.00;;;6.48;;
54143;SDS011;40050;47.324;18.792;2023-05-07T01:18:33;7.45;;;6.19;;
54143;SDS011;40050;47.324;18.792;2023-05-07T01:20:35;8.28;;;6.48;;
54143;SDS011;40050;47.324;18.792;2023-05-07T01:22:39;8.00;;;6.58;;
54143;SDS011;40050;47.324;18.792;2023-05-07T01:24:40;8.18;;;6.09;;
54143;SDS011;40050;47.324;18.792;2023-05-07T01:26:42;8.19;;;6.09;;
54143;SDS011;40050;47.324;18.792;2023-05-07T01:28:42;7.83;;;6.39;;
54143;SDS011;40050;47.324;18.792;2023-05-07T01:30:44;7.93;;;6.00;;
54143;SDS011;40050;47.324;18.792;2023-05-07T01:32:48;9.68;;;6.59;;
54143;SDS011;40050;47.324;18.792;2023-05-07T01:34:48;7.47;;;6.29;;
54143;SDS011;40050;47.324;18.792;2023-05-07T01:36:51;8.95;;;6.49;;
54143;SDS011;40050;47.324;18.792;2023-05-07T01:38:53;7.67;;;6.20;;
54143;SDS011;40050;47.324;18.792;2023-05-07T01:40:55;6.76;;;5.81;;
54143;SDS011;40050;47.324;18.792;2023-05-07T01:42:56;6.75;;;5.81;;
54143;SDS011;40050;47.324;18.792;2023-05-07T01:44:58;6.10;;;5.71;;
54143;SDS011;40050;47.324;18.792;2023-05-07T01:46:59;7.21;;;5.61;;
54143;SDS011;40050;47.324;18.792;2023-05-07T01:49:00;10.07;;;5.90;;
54143;SDS011;40050;47.324;18.792;2023-05-07T01:51:01;7.11;;;5.41;;
54143;SDS011;40050;47.324;18.792;2023-05-07T01:53:02;7.01;;;5.80;;
54143;SDS011;40050;47.324;18.792;2023-05-07T01:55:04;7.92;;;5.60;;
54143;SDS011;40050;47.324;18.792;2023-05-07T01:57:04;9.11;;;5.70;;
54143;SDS011;40050;47.324;18.792;2023-05-07T01:59:05;8.37;;;6.39;;
54143;SDS011;40050;47.324;18.792;2023-05-07T02:01:06;8.74;;;6.48;;
54143;SDS011;40050;47.324;18.792;2023-05-07T02:03:07;8.64;;;6.19;;
54143;SDS011;40050;47.324;18.792;2023-05-07T02:05:08;7.63;;;5.60;;
54143;SDS011;40050;47.324;18.792;2023-05-07T02:07:09;7.73;;;5.50;;
54143;SDS011;40050;47.324;18.792;2023-05-07T02:09:10;6.72;;;5.70;;
54143;SDS011;40050;47.324;18.792;2023-05-07T02:11:11;8.19;;;5.50;;
54143;SDS011;40050;47.324;18.792;2023-05-07T02:13:12;7.00;;;5.99;;
54143;SDS011;40050;47.324;18.792;2023-05-07T02:15:13;8.38;;;6.29;;
54143;SDS011;40050;47.324;18.792;2023-05-07T02:17:14;6.73;;;5.51;;
54143;SDS011;40050;47.324;18.792;2023-05-07T02:19:15;7.57;;;5.90;;
54143;SDS011;40050;47.324;18.792;2023-05-07T02:21:16;8.87;;;5.70;;
54143;SDS011;40050;47.324;18.792;2023-05-07T02:23:17;6.95;;;5.81;;
54143;SDS011;40050;47.324;18.792;2023-05-07T02:25:17;7.50;;;5.51;;
54143;SDS011;40050;47.324;18.792;2023-05-07T02:27:18;6.29;;;5.51;;
54143;SDS011;40050;47.324;18.792;2023-05-07T02:29:19;6.38;;;5.51;;
54143;SDS011;40050;47.324;18.792;2023-05-07T02:31:20;9.15;;;5.80;;
54143;SDS011;40050;47.324;18.792;2023-05-07T02:33:21;5.63;;;5.02;;
54143;SDS011;40050;47.324;18.792;2023-05-07T02:35:23;7.57;;;6.10;;
54143;SDS011;40050;47.324;18.792;2023-05-07T02:37:23;9.49;;;7.57;;
54143;SDS011;40050;47.324;18.792;2023-05-07T02:39:24;8.66;;;7.08;;
54143;SDS011;40050;47.324;18.792;2023-05-07T02:41:25;8.30;;;6.98;;
54143;SDS011;40050;47.324;18.792;2023-05-07T02:43:26;10.24;;;7.77;;
54143;SDS011;40050;47.324;18.792;2023-05-07T02:45:27;9.32;;;7.67;;
54143;SDS011;40050;47.324;18.792;2023-05-07T02:47:28;9.13;;;7.18;;
54143;SDS011;40050;47.324;18.792;2023-05-07T02:49:29;8.02;;;6.78;;
54143;SDS011;40050;47.324;18.792;2023-05-07T02:51:30;8.11;;;6.49;;
54143;SDS011;40050;47.324;18.792;2023-05-07T02:53:31;7.55;;;6.19;;
54143;SDS011;40050;47.324;18.792;2023-05-07T02:55:32;7.83;;;5.90;;
54143;SDS011;40050;47.324;18.792;2023-05-07T02:57:32;6.55;;;6.10;;
54143;SDS011;40050;47.324;18.792;2023-05-07T02:59:33;6.46;;;5.51;;
54143;SDS011;40050;47.324;18.792;2023-05-07T03:01:34;9.12;;;5.70;;
54143;SDS011;40050;47.324;18.792;2023-05-07T03:03:35;6.72;;;5.99;;
54143;SDS011;40050;47.324;18.792;2023-05-07T03:05:37;7.29;;;6.49;;
54143;SDS011;40050;47.324;18.792;2023-05-07T03:07:38;7.21;;;4.72;;
54143;SDS011;40050;47.324;18.792;2023-05-07T03:09:39;4.44;;;4.13;;
54143;SDS011;40050;47.324;18.792;2023-05-07T03:11:40;4.35;;;3.74;;
54143;SDS011;40050;47.324;18.792;2023-05-07T03:13:41;4.08;;;3.94;;
54143;SDS011;40050;47.324;18.792;2023-05-07T03:15:41;5.38;;;3.74;;
54143;SDS011;40050;47.324;18.792;2023-05-07T03:17:42;4.26;;;4.13;;
54143;SDS011;40050;47.324;18.792;2023-05-07T03:19:43;4.71;;;4.33;;
54143;SDS011;40050;47.324;18.792;2023-05-07T03:21:44;5.07;;;4.62;;
54143;SDS011;40050;47.324;18.792;2023-05-07T03:23:45;5.07;;;4.82;;
54143;SDS011;40050;47.324;18.792;2023-05-07T03:25:46;5.90;;;4.42;;
54143;SDS011;40050;47.324;18.792;2023-05-07T03:27:47;5.44;;;4.62;;
54143;SDS011;40050;47.324;18.792;2023-05-07T03:29:48;6.36;;;4.91;;
54143;SDS011;40050;47.324;18.792;2023-05-07T03:31:49;6.26;;;5.01;;
54143;SDS011;40050;47.324;18.792;2023-05-07T03:33:50;6.07;;;5.11;;
54143;SDS011;40050;47.324;18.792;2023-05-07T03:35:51;7.07;;;5.50;;
54143;SDS011;40050;47.324;18.792;2023-05-07T03:37:51;7.25;;;6.48;;
54143;SDS011;40050;47.324;18.792;2023-05-07T03:39:52;7.89;;;6.09;;
54143;SDS011;40050;47.324;18.792;2023-05-07T03:41:53;10.20;;;6.58;;
54143;SDS011;40050;47.324;18.792;2023-05-07T03:43:54;9.19;;;6.19;;
54143;SDS011;40050;47.324;18.792;2023-05-07T03:45:55;6.89;;;5.69;;
54143;SDS011;40050;47.324;18.792;2023-05-07T03:47:56;7.53;;;5.79;;
54143;SDS011;40050;47.324;18.792;2023-05-07T03:49:57;7.62;;;5.99;;
54143;SDS011;40050;47.324;18.792;2023-05-07T03:51:58;6.51;;;5.89;;
54143;SDS011;40050;47.324;18.792;2023-05-07T03:53:59;7.98;;;5.89;;
54143;SDS011;40050;47.324;18.792;2023-05-07T03:56:00;7.15;;;5.59;;
54143;SDS011;40050;47.324;18.792;2023-05-07T03:58:00;9.98;;;6.08;;
54143;SDS011;40050;47.324;18.792;2023-05-07T04:00:02;6.95;;;5.29;;
54143;SDS011;40050;47.324;18.792;2023-05-07T04:02:02;8.50;;;6.18;;
54143;SDS011;40050;47.324;18.792;2023-05-07T04:04:03;7.85;;;5.78;;
54143;SDS011;40050;47.324;18.792;2023-05-07T04:06:04;6.94;;;5.49;;
54143;SDS011;40050;47.324;18.792;2023-05-07T04:08:05;6.76;;;5.59;;
54143;SDS011;40050;47.324;18.792;2023-05-07T04:10:06;8.13;;;6.27;;
54143;SDS011;40050;47.324;18.792;2023-05-07T04:12:07;10.40;;;6.66;;
54143;SDS011;40050;47.324;18.792;2023-05-07T04:14:08;8.47;;;6.66;;
54143;SDS011;40050;47.324;18.792;2023-05-07T04:16:09;11.42;;;7.43;;
54143;SDS011;40050;47.324;18.792;2023-05-07T04:18:10;9.77;;;7.72;;
54143;SDS011;40050;47.324;18.792;2023-05-07T04:20:13;9.21;;;7.32;;
54143;SDS011;40050;47.324;18.792;2023-05-07T04:22:11;10.69;;;7.50;;
54143;SDS011;40050;47.324;18.792;2023-05-07T04:24:12;10.13;;;8.37;;
54143;SDS011;40050;47.324;18.792;2023-05-07T04:26:14;11.80;;;7.97;;
54143;SDS011;40050;47.324;18.792;2023-05-07T04:28:14;11.52;;;8.36;;
54143;SDS011;40050;47.324;18.792;2023-05-07T04:30:15;13.20;;;8.26;;
54143;SDS011;40050;47.324;18.792;2023-05-07T04:32:16;12.11;;;8.25;;
54143;SDS011;40050;47.324;18.792;2023-05-07T04:34:17;10.68;;;8.06;;
54143;SDS011;40050;47.324;18.792;2023-05-07T04:36:18;10.50;;;7.86;;
54143;SDS011;40050;47.324;18.792;2023-05-07T04:38:19;10.84;;;8.24;;
54143;SDS011;40050;47.324;18.792;2023-05-07T04:40:20;11.26;;;9.11;;
54143;SDS011;40050;47.324;18.792;2023-05-07T04:42:21;11.42;;;9.01;;
54143;SDS011;40050;47.324;18.792;2023-05-07T04:44:21;12.25;;;8.99;;
54143;SDS011;40050;47.324;18.792;2023-05-07T04:46:22;13.01;;;9.27;;
54143;SDS011;40050;47.324;18.792;2023-05-07T04:48:23;11.88;;;9.37;;
54143;SDS011;40050;47.324;18.792;2023-05-07T04:50:24;12.14;;;9.47;;
54143;SDS011;40050;47.324;18.792;2023-05-07T04:52:25;12.49;;;9.76;;
54143;SDS011;40050;47.324;18.792;2023-05-07T04:54:26;13.03;;;10.05;;
54143;SDS011;40050;47.324;18.792;2023-05-07T04:56:28;12.41;;;9.95;;
54143;SDS011;40050;47.324;18.792;2023-05-07T04:58:28;12.50;;;10.15;;
54143;SDS011;40050;47.324;18.792;2023-05-07T05:00:29;12.04;;;10.04;;
54143;SDS011;40050;47.324;18.792;2023-05-07T05:02:30;14.03;;;10.52;;
54143;SDS011;40050;47.324;18.792;2023-05-07T05:04:31;13.90;;;10.70;;
54143;SDS011;40050;47.324;18.792;2023-05-07T05:06:32;14.68;;;11.08;;
54143;SDS011;40050;47.324;18.792;2023-05-07T05:08:33;14.51;;;11.47;;
54143;SDS011;40050;47.324;18.792;2023-05-07T05:10:34;14.58;;;11.07;;
54143;SDS011;40050;47.324;18.792;2023-05-07T05:12:35;15.51;;;11.07;;
54143;SDS011;40050;47.324;18.792;2023-05-07T05:14:36;12.09;;;10.58;;
54143;SDS011;40050;47.324;18.792;2023-05-07T05:16:37;13.59;;;10.39;;
54143;SDS011;40050;47.324;18.792;2023-05-07T05:18:38;13.07;;;9.91;;
54143;SDS011;40050;47.324;18.792;2023-05-07T05:20:39;16.81;;;10.77;;
54143;SDS011;40050;47.324;18.792;2023-05-07T05:22:41;14.24;;;9.70;;
54143;SDS011;40050;47.324;18.792;2023-05-07T05:24:41;11.15;;;9.72;;
54143;SDS011;40050;47.324;18.792;2023-05-07T05:26:42;11.57;;;9.36;;
54143;SDS011;40050;47.324;18.792;2023-05-07T05:28:43;10.63;;;9.27;;
54143;SDS011;40050;47.324;18.792;2023-05-07T05:30:44;10.66;;;8.89;;
54143;SDS011;40050;47.324;18.792;2023-05-07T05:32:45;9.72;;;7.94;;
54143;SDS011;40050;47.324;18.792;2023-05-07T05:34:46;11.95;;;8.45;;
54143;SDS011;40050;47.324;18.792;2023-05-07T05:36:47;12.71;;;8.75;;
54143;SDS011;40050;47.324;18.792;2023-05-07T05:38:48;10.01;;;8.17;;
54143;SDS011;40050;47.324;18.792;2023-05-07T05:40:49;10.63;;;8.07;;
54143;SDS011;40050;47.324;18.792;2023-05-07T05:42:50;9.90;;;8.65;;
54143;SDS011;40050;47.324;18.792;2023-05-07T05:44:51;11.44;;;8.26;;
54143;SDS011;40050;47.324;18.792;2023-05-07T05:46:52;10.32;;;8.28;;
54143;SDS011;40050;47.324;18.792;2023-05-07T05:48:53;9.46;;;8.49;;
54143;SDS011;40050;47.324;18.792;2023-05-07T05:50:54;10.69;;;8.67;;
54143;SDS011;40050;47.324;18.792;2023-05-07T05:52:54;10.64;;;8.19;;
54143;SDS011;40050;47.324;18.792;2023-05-07T05:54:55;9.50;;;8.20;;
54143;SDS011;40050;47.324;18.792;2023-05-07T05:56:56;10.06;;;8.70;;
54143;SDS011;40050;47.324;18.792;2023-05-07T05:58:57;10.84;;;8.88;;
54143;SDS011;40050;47.324;18.792;2023-05-07T06:00:58;11.29;;;8.98;;
54143;SDS011;40050;47.324;18.792;2023-05-07T06:02:59;10.88;;;8.99;;
54143;SDS011;40050;47.324;18.792;2023-05-07T06:05:00;9.11;;;8.32;;
54143;SDS011;40050;47.324;18.792;2023-05-07T06:07:01;9.45;;;8.07;;
54143;SDS011;40050;47.324;18.792;2023-05-07T06:09:02;10.41;;;7.98;;
54143;SDS011;40050;47.324;18.792;2023-05-07T06:11:03;9.57;;;7.88;;
54143;SDS011;40050;47.324;18.792;2023-05-07T06:13:04;8.71;;;7.80;;
54143;SDS011;40050;47.324;18.792;2023-05-07T06:15:05;8.15;;;7.51;;
54143;SDS011;40050;47.324;18.792;2023-05-07T06:17:06;9.43;;;7.82;;
54143;SDS011;40050;47.324;18.792;2023-05-07T06:19:07;9.24;;;7.52;;
54143;SDS011;40050;47.324;18.792;2023-05-07T06:21:09;9.46;;;7.63;;
54143;SDS011;40050;47.324;18.792;2023-05-07T06:23:09;8.54;;;7.33;;
54143;SDS011;40050;47.324;18.792;2023-05-07T06:25:10;7.70;;;6.94;;
54143;SDS011;40050;47.324;18.792;2023-05-07T06:27:11;9.45;;;7.35;;
54143;SDS011;40050;47.324;18.792;2023-05-07T06:29:11;10.97;;;7.94;;
54143;SDS011;40050;47.324;18.792;2023-05-07T06:31:15;8.39;;;7.44;;
54143;SDS011;40050;47.324;18.792;2023-05-07T06:33:13;10.11;;;7.44;;
54143;SDS011;40050;47.324;18.792;2023-05-07T06:35:14;7.85;;;6.66;;
54143;SDS011;40050;47.324;18.792;2023-05-07T06:37:15;7.96;;;6.36;;
54143;SDS011;40050;47.324;18.792;2023-05-07T06:39:16;9.12;;;6.66;;
54143;SDS011;40050;47.324;18.792;2023-05-07T06:41:19;8.10;;;6.57;;
54143;SDS011;40050;47.324;18.792;2023-05-07T06:43:20;7.60;;;6.96;;
54143;SDS011;40050;47.324;18.792;2023-05-07T06:45:21;8.58;;;6.96;;
54143;SDS011;40050;47.324;18.792;2023-05-07T06:47:21;8.24;;;6.57;;
54143;SDS011;40050;47.324;18.792;2023-05-07T06:49:22;8.23;;;6.57;;
54143;SDS011;40050;47.324;18.792;2023-05-07T06:51:23;9.86;;;6.87;;
54143;SDS011;40050;47.324;18.792;2023-05-07T06:53:24;9.61;;;6.67;;
54143;SDS011;40050;47.324;18.792;2023-05-07T06:55:25;9.12;;;6.77;;
54143;SDS011;40050;47.324;18.792;2023-05-07T06:57:26;5.93;;;5.48;;
54143;SDS011;40050;47.324;18.792;2023-05-07T06:59:27;7.97;;;5.68;;
54143;SDS011;40050;47.324;18.792;2023-05-07T07:01:28;6.41;;;5.68;;
54143;SDS011;40050;47.324;18.792;2023-05-07T07:03:29;6.60;;;4.98;;
54143;SDS011;40050;47.324;18.792;2023-05-07T07:05:30;6.22;;;5.38;;
54143;SDS011;40050;47.324;18.792;2023-05-07T07:07:30;6.11;;;5.18;;
54143;SDS011;40050;47.324;18.792;2023-05-07T07:09:31;6.22;;;5.38;;
54143;SDS011;40050;47.324;18.792;2023-05-07T07:11:32;6.98;;;5.48;;
54143;SDS011;40050;47.324;18.792;2023-05-07T07:13:33;7.17;;;5.18;;
54143;SDS011;40050;47.324;18.792;2023-05-07T07:15:34;7.27;;;4.98;;
54143;SDS011;40050;47.324;18.792;2023-05-07T07:17:35;6.61;;;5.68;;
54143;SDS011;40050;47.324;18.792;2023-05-07T07:19:36;6.80;;;5.68;;
54143;SDS011;40050;47.324;18.792;2023-05-07T07:21:37;6.78;;;5.48;;
54143;SDS011;40050;47.324;18.792;2023-05-07T07:23:38;6.97;;;5.48;;
54143;SDS011;40050;47.324;18.792;2023-05-07T07:25:39;7.15;;;5.67;;
54143;SDS011;40050;47.324;18.792;2023-05-07T07:27:40;7.23;;;6.17;;
54143;SDS011;40050;47.324;18.792;2023-05-07T07:29:41;7.53;;;6.37;;
54143;SDS011;40050;47.324;18.792;2023-05-07T07:31:42;8.30;;;6.37;;
54143;SDS011;40050;47.324;18.792;2023-05-07T07:33:43;8.97;;;6.57;;
54143;SDS011;40050;47.324;18.792;2023-05-07T07:35:44;8.00;;;6.37;;
54143;SDS011;40050;47.324;18.792;2023-05-07T07:37:45;7.80;;;6.37;;
54143;SDS011;40050;47.324;18.792;2023-05-07T07:39:46;10.40;;;6.76;;
54143;SDS011;40050;47.324;18.792;2023-05-07T07:41:47;9.84;;;7.26;;
54143;SDS011;40050;47.324;18.792;2023-05-07T07:43:48;10.22;;;7.16;;
54143;SDS011;40050;47.324;18.792;2023-05-07T07:45:49;7.90;;;6.47;;
54143;SDS011;40050;47.324;18.792;2023-05-07T07:47:50;10.02;;;6.66;;
54143;SDS011;40050;47.324;18.792;2023-05-07T07:49:51;8.29;;;6.57;;
54143;SDS011;40050;47.324;18.792;2023-05-07T07:51:51;7.32;;;6.07;;
54143;SDS011;40050;47.324;18.792;2023-05-07T07:53:52;7.74;;;5.28;;
54143;SDS011;40050;47.324;18.792;2023-05-07T07:55:53;7.55;;;5.58;;
54143;SDS011;40050;47.324;18.792;2023-05-07T07:57:54;7.74;;;5.57;;
54143;SDS011;40050;47.324;18.792;2023-05-07T07:59:56;7.16;;;5.97;;
54143;SDS011;40050;47.324;18.792;2023-05-07T08:01:56;7.26;;;5.97;;
54143;SDS011;40050;47.324;18.792;2023-05-07T08:03:57;6.19;;;5.38;;
54143;SDS011;40050;47.324;18.792;2023-05-07T08:05:58;7.17;;;5.58;;
54143;SDS011;40050;47.324;18.792;2023-05-07T08:07:59;6.98;;;5.08;;
54143;SDS011;40050;47.324;18.792;2023-05-07T08:10:00;8.32;;;5.68;;
54143;SDS011;40050;47.324;18.792;2023-05-07T08:12:01;6.47;;;5.27;;
54143;SDS011;40050;47.324;18.792;2023-05-07T08:14:02;7.13;;;5.37;;
54143;SDS011;40050;47.324;18.792;2023-05-07T08:16:03;6.86;;;5.27;;
54143;SDS011;40050;47.324;18.792;2023-05-07T08:18:04;6.18;;;4.88;;
54143;SDS011;40050;47.324;18.792;2023-05-07T08:20:05;6.96;;;4.68;;
54143;SDS011;40050;47.324;18.792;2023-05-07T08:22:06;6.38;;;4.98;;
54143;SDS011;40050;47.324;18.792;2023-05-07T08:24:07;6.68;;;5.28;;
54143;SDS011;40050;47.324;18.792;2023-05-07T08:26:08;6.19;;;4.88;;
54143;SDS011;40050;47.324;18.792;2023-05-07T08:28:08;8.80;;;5.28;;
54143;SDS011;40050;47.324;18.792;2023-05-07T08:30:09;7.17;;;4.78;;
54143;SDS011;40050;47.324;18.792;2023-05-07T08:32:10;6.01;;;4.08;;
54143;SDS011;40050;47.324;18.792;2023-05-07T08:34:11;5.14;;;4.28;;
54143;SDS011;40050;47.324;18.792;2023-05-07T08:36:12;5.24;;;4.28;;
54143;SDS011;40050;47.324;18.792;2023-05-07T08:38:13;5.43;;;4.58;;
54143;SDS011;40050;47.324;18.792;2023-05-07T08:40:14;6.11;;;5.08;;
54143;SDS011;40050;47.324;18.792;2023-05-07T08:42:19;5.23;;;4.28;;
54143;SDS011;40050;47.324;18.792;2023-05-07T08:44:21;6.02;;;4.18;;
54143;SDS011;40050;47.324;18.792;2023-05-07T08:46:23;5.15;;;3.89;;
54143;SDS011;40050;47.324;18.792;2023-05-07T08:48:29;4.67;;;4.09;;
54143;SDS011;40050;47.324;18.792;2023-05-07T08:50:30;4.19;;;3.79;;
54143;SDS011;40050;47.324;18.792;2023-05-07T08:52:31;5.26;;;3.39;;
54143;SDS011;40050;47.324;18.792;2023-05-07T08:54:32;4.10;;;3.29;;
54143;SDS011;40050;47.324;18.792;2023-05-07T08:56:33;4.59;;;3.39;;
54143;SDS011;40050;47.324;18.792;2023-05-07T08:58:35;7.12;;;3.39;;
54143;SDS011;40050;47.324;18.792;2023-05-07T09:00:36;4.20;;;3.19;;
54143;SDS011;40050;47.324;18.792;2023-05-07T09:02:40;4.59;;;3.29;;
54143;SDS011;40050;47.324;18.792;2023-05-07T09:04:41;4.10;;;3.29;;
54143;SDS011;40050;47.324;18.792;2023-05-07T09:06:42;3.90;;;3.49;;
54143;SDS011;40050;47.324;18.792;2023-05-07T09:08:49;3.90;;;3.39;;
54143;SDS011;40050;47.324;18.792;2023-05-07T09:10:46;6.13;;;4.09;;
54143;SDS011;40050;47.324;18.792;2023-05-07T09:12:48;4.86;;;4.09;;
54143;SDS011;40050;47.324;18.792;2023-05-07T09:14:52;6.41;;;4.09;;
54143;SDS011;40050;47.324;18.792;2023-05-07T09:16:53;4.67;;;3.79;;
54143;SDS011;40050;47.324;18.792;2023-05-07T09:18:58;5.54;;;4.38;;
54143;SDS011;40050;47.324;18.792;2023-05-07T09:20:58;5.44;;;3.79;;
54143;SDS011;40050;47.324;18.792;2023-05-07T09:22:59;4.98;;;3.79;;
54143;SDS011;40050;47.324;18.792;2023-05-07T09:25:00;4.77;;;4.09;;
54143;SDS011;40050;47.324;18.792;2023-05-07T09:27:01;3.71;;;3.29;;
54143;SDS011;40050;47.324;18.792;2023-05-07T09:29:02;3.81;;;3.09;;
54143;SDS011;40050;47.324;18.792;2023-05-07T09:31:03;4.11;;;3.19;;
54143;SDS011;40050;47.324;18.792;2023-05-07T09:33:05;4.79;;;3.59;;
54143;SDS011;40050;47.324;18.792;2023-05-07T09:35:13;4.99;;;3.49;;
54143;SDS011;40050;47.324;18.792;2023-05-07T09:37:08;4.21;;;3.19;;
54143;SDS011;40050;47.324;18.792;2023-05-07T09:39:09;4.40;;;3.39;;
54143;SDS011;40050;47.324;18.792;2023-05-07T09:41:10;3.82;;;3.19;;
54143;SDS011;40050;47.324;18.792;2023-05-07T09:43:11;4.51;;;3.19;;
54143;SDS011;40050;47.324;18.792;2023-05-07T09:45:12;4.51;;;2.99;;
54143;SDS011;40050;47.324;18.792;2023-05-07T09:47:16;6.56;;;4.09;;
54143;SDS011;40050;47.324;18.792;2023-05-07T09:49:24;5.09;;;4.39;;
54143;SDS011;40050;47.324;18.792;2023-05-07T09:51:29;5.48;;;4.19;;
54143;SDS011;40050;47.324;18.792;2023-05-07T09:53:21;5.66;;;4.59;;
54143;SDS011;40050;47.324;18.792;2023-05-07T09:55:22;8.58;;;4.79;;
54143;SDS011;40050;47.324;18.792;2023-05-07T09:57:23;6.92;;;4.69;;
54143;SDS011;40050;47.324;18.792;2023-05-07T09:59:26;6.15;;;4.69;;
54143;SDS011;40050;47.324;18.792;2023-05-07T10:01:29;6.15;;;4.59;;
54143;SDS011;40050;47.324;18.792;2023-05-07T10:03:29;5.95;;;4.09;;
54143;SDS011;40050;47.324;18.792;2023-05-07T10:05:31;4.97;;;3.89;;
54143;SDS011;40050;47.324;18.792;2023-05-07T10:07:32;4.30;;;3.59;;
54143;SDS011;40050;47.324;18.792;2023-05-07T10:09:33;4.98;;;3.89;;
54143;SDS011;40050;47.324;18.792;2023-05-07T10:11:35;5.56;;;3.89;;
54143;SDS011;40050;47.324;18.792;2023-05-07T10:13:36;5.65;;;4.09;;
54143;SDS011;40050;47.324;18.792;2023-05-07T10:15:40;4.96;;;4.39;;
54143;SDS011;40050;47.324;18.792;2023-05-07T10:17:42;5.83;;;4.58;;
54143;SDS011;40050;47.324;18.792;2023-05-07T10:19:46;5.55;;;4.88;;
54143;SDS011;40050;47.324;18.792;2023-05-07T10:21:51;6.51;;;4.78;;
54143;SDS011;40050;47.324;18.792;2023-05-07T10:23:58;7.96;;;5.38;;
54143;SDS011;40050;47.324;18.792;2023-05-07T10:25:57;6.50;;;5.18;;
54143;SDS011;40050;47.324;18.792;2023-05-07T10:27:59;7.50;;;5.38;;
54143;SDS011;40050;47.324;18.792;2023-05-07T10:32:35;8.26;;;5.78;;
54143;SDS011;40050;47.324;18.792;2023-05-07T10:34:28;9.22;;;6.58;;
54143;SDS011;40050;47.324;18.792;2023-05-07T10:36:29;8.45;;;6.58;;
54143;SDS011;40050;47.324;18.792;2023-05-07T10:38:30;7.66;;;6.57;;
54143;SDS011;40050;47.324;18.792;2023-05-07T10:40:31;8.78;;;6.38;;
54143;SDS011;40050;47.324;18.792;2023-05-07T10:42:39;8.67;;;6.18;;
54143;SDS011;40050;47.324;18.792;2023-05-07T10:44:40;7.50;;;6.28;;
54143;SDS011;40050;47.324;18.792;2023-05-07T10:46:42;7.39;;;6.28;;
54143;SDS011;40050;47.324;18.792;2023-05-07T10:50:53;7.49;;;6.38;;
54143;SDS011;40050;47.324;18.792;2023-05-07T10:56:57;8.41;;;6.88;;
54143;SDS011;40050;47.324;18.792;2023-05-07T10:59:22;9.49;;;6.78;;
54143;SDS011;40050;47.324;18.792;2023-05-07T11:01:12;7.15;;;6.09;;
54143;SDS011;40050;47.324;18.792;2023-05-07T11:03:31;6.17;;;5.09;;
54143;SDS011;40050;47.324;18.792;2023-05-07T11:06:08;6.49;;;4.69;;
54143;SDS011;40050;47.324;18.792;2023-05-07T11:08:01;6.79;;;4.89;;
54143;SDS011;40050;47.324;18.792;2023-05-07T11:10:12;5.91;;;3.99;;
54143;SDS011;40050;47.324;18.792;2023-05-07T11:16:22;6.92;;;4.50;;
54143;SDS011;40050;47.324;18.792;2023-05-07T11:18:23;8.09;;;4.50;;
54143;SDS011;40050;47.324;18.792;2023-05-07T11:22:35;3.86;;;3.00;;
54143;SDS011;40050;47.324;18.792;2023-05-07T11:24:27;4.46;;;3.60;;
54143;SDS011;40050;47.324;18.792;2023-05-07T11:26:49;3.66;;;3.20;;
54143;SDS011;40050;47.324;18.792;2023-05-07T11:28:44;5.76;;;3.30;;
54143;SDS011;40050;47.324;18.792;2023-05-07T11:30:48;3.87;;;2.70;;
54143;SDS011;40050;47.324;18.792;2023-05-07T11:32:59;3.38;;;3.10;;
54143;SDS011;40050;47.324;18.792;2023-05-07T11:35:00;5.66;;;3.60;;
54143;SDS011;40050;47.324;18.792;2023-05-07T11:37:02;3.87;;;3.10;;
54143;SDS011;40050;47.324;18.792;2023-05-07T11:39:20;5.76;;;3.90;;
54143;SDS011;40050;47.324;18.792;2023-05-07T11:41:19;6.85;;;3.40;;
54143;SDS011;40050;47.324;18.792;2023-05-07T11:43:20;5.26;;;3.20;;
54143;SDS011;40050;47.324;18.792;2023-05-07T11:45:24;5.95;;;3.30;;
54143;SDS011;40050;47.324;18.792;2023-05-07T11:47:22;3.67;;;3.00;;
54143;SDS011;40050;47.324;18.792;2023-05-07T11:49:25;3.48;;;3.20;;
54143;SDS011;40050;47.324;18.792;2023-05-07T11:51:30;5.27;;;2.80;;
54143;SDS011;40050;47.324;18.792;2023-05-07T11:53:39;3.97;;;3.10;;
54143;SDS011;40050;47.324;18.792;2023-05-07T11:55:39;3.28;;;2.50;;
54143;SDS011;40050;47.324;18.792;2023-05-07T11:57:45;4.67;;;2.40;;
54143;SDS011;40050;47.324;18.792;2023-05-07T11:59:55;3.38;;;2.50;;
54143;SDS011;40050;47.324;18.792;2023-05-07T12:01:50;4.48;;;2.80;;
54143;SDS011;40050;47.324;18.792;2023-05-07T12:03:52;3.78;;;2.80;;
54143;SDS011;40050;47.324;18.792;2023-05-07T12:05:53;3.18;;;2.60;;
54143;SDS011;40050;47.324;18.792;2023-05-07T12:07:58;2.99;;;2.60;;
54143;SDS011;40050;47.324;18.792;2023-05-07T12:09:56;4.38;;;2.90;;
54143;SDS011;40050;47.324;18.792;2023-05-07T12:11:58;3.78;;;2.80;;
54143;SDS011;40050;47.324;18.792;2023-05-07T12:13:58;3.18;;;2.70;;